sensor_id;sensor_type;location;lat;lon;timestamp;P1;durP1;ratioP1;P2;durP2;ratioP2
22697;SDS011;11516;51.612;7.510;2022-10-31T00:01:12;14.65;;;8.82;;
22697;SDS011;11516;51.612;7.510;2022-10-31T00:03:39;13.80;;;9.07;;
22697;SDS011;11516;51.612;7.510;2022-10-31T00:06:04;12.77;;;8.70;;
22697;SDS011;11516;51.612;7.510;2022-10-31T00:08:30;15.13;;;9.35;;
22697;SDS011;11516;51.612;7.510;2022-10-31T00:10:55;16.90;;;8.88;;
22697;SDS011;11516;51.612;7.510;2022-10-31T00:13:21;14.88;;;8.93;;
22697;SDS011;11516;51.612;7.510;2022-10-31T00:15:46;14.65;;;8.90;;
22697;SDS011;11516;51.612;7.510;2022-10-31T00:18:12;14.10;;;8.53;;
22697;SDS011;11516;51.612;7.510;2022-10-31T00:20:37;16.25;;;9.43;;
22697;SDS011;11516;51.612;7.510;2022-10-31T00:23:03;19.40;;;10.02;;
22697;SDS011;11516;51.612;7.510;2022-10-31T00:25:32;15.43;;;9.30;;
22697;SDS011;11516;51.612;7.510;2022-10-31T00:27:59;15.23;;;9.45;;
22697;SDS011;11516;51.612;7.510;2022-10-31T00:30:25;15.57;;;9.20;;
22697;SDS011;11516;51.612;7.510;2022-10-31T00:32:50;18.30;;;11.30;;
22697;SDS011;11516;51.612;7.510;2022-10-31T00:35:16;13.97;;;9.27;;
22697;SDS011;11516;51.612;7.510;2022-10-31T00:37:41;17.00;;;9.03;;
22697;SDS011;11516;51.612;7.510;2022-10-31T00:40:07;17.90;;;9.63;;
22697;SDS011;11516;51.612;7.510;2022-10-31T00:42:33;18.42;;;9.35;;
22697;SDS011;11516;51.612;7.510;2022-10-31T00:44:59;17.13;;;9.30;;
22697;SDS011;11516;51.612;7.510;2022-10-31T00:47:24;14.60;;;8.37;;
22697;SDS011;11516;51.612;7.510;2022-10-31T00:49:50;14.13;;;8.30;;
22697;SDS011;11516;51.612;7.510;2022-10-31T00:52:15;12.03;;;8.60;;
22697;SDS011;11516;51.612;7.510;2022-10-31T00:54:41;16.67;;;9.43;;
22697;SDS011;11516;51.612;7.510;2022-10-31T00:57:06;13.87;;;8.43;;
22697;SDS011;11516;51.612;7.510;2022-10-31T00:59:32;13.73;;;8.60;;
22697;SDS011;11516;51.612;7.510;2022-10-31T01:01:57;16.50;;;9.10;;
22697;SDS011;11516;51.612;7.510;2022-10-31T01:04:23;13.10;;;9.13;;
22697;SDS011;11516;51.612;7.510;2022-10-31T01:06:48;15.33;;;8.77;;
22697;SDS011;11516;51.612;7.510;2022-10-31T01:09:14;18.87;;;9.67;;
22697;SDS011;11516;51.612;7.510;2022-10-31T01:11:40;14.85;;;9.25;;
22697;SDS011;11516;51.612;7.510;2022-10-31T01:14:05;14.65;;;9.75;;
22697;SDS011;11516;51.612;7.510;2022-10-31T01:16:31;13.52;;;9.80;;
22697;SDS011;11516;51.612;7.510;2022-10-31T01:18:56;15.40;;;9.90;;
22697;SDS011;11516;51.612;7.510;2022-10-31T01:21:23;13.70;;;9.07;;
22697;SDS011;11516;51.612;7.510;2022-10-31T01:23:52;17.33;;;9.57;;
22697;SDS011;11516;51.612;7.510;2022-10-31T01:26:20;16.30;;;8.97;;
22697;SDS011;11516;51.612;7.510;2022-10-31T01:28:51;14.20;;;9.77;;
22697;SDS011;11516;51.612;7.510;2022-10-31T01:31:18;15.75;;;9.07;;
22697;SDS011;11516;51.612;7.510;2022-10-31T01:33:45;14.57;;;8.80;;
22697;SDS011;11516;51.612;7.510;2022-10-31T01:36:16;15.60;;;9.20;;
22697;SDS011;11516;51.612;7.510;2022-10-31T01:39:06;13.93;;;9.10;;
22697;SDS011;11516;51.612;7.510;2022-10-31T01:41:38;14.35;;;8.77;;
22697;SDS011;11516;51.612;7.510;2022-10-31T01:49:15;13.52;;;9.30;;
22697;SDS011;11516;51.612;7.510;2022-10-31T01:51:49;16.85;;;9.52;;
22697;SDS011;11516;51.612;7.510;2022-10-31T01:54:19;18.25;;;10.18;;
22697;SDS011;11516;51.612;7.510;2022-10-31T01:56:48;18.08;;;10.48;;
22697;SDS011;11516;51.612;7.510;2022-10-31T01:59:17;17.20;;;11.63;;
22697;SDS011;11516;51.612;7.510;2022-10-31T02:01:46;15.65;;;10.63;;
22697;SDS011;11516;51.612;7.510;2022-10-31T02:04:14;18.58;;;10.68;;
22697;SDS011;11516;51.612;7.510;2022-10-31T02:06:45;16.23;;;10.77;;
22697;SDS011;11516;51.612;7.510;2022-10-31T02:09:12;17.33;;;10.07;;
22697;SDS011;11516;51.612;7.510;2022-10-31T02:11:38;16.05;;;9.52;;
22697;SDS011;11516;51.612;7.510;2022-10-31T02:14:05;13.85;;;9.82;;
22697;SDS011;11516;51.612;7.510;2022-10-31T02:16:30;15.63;;;9.87;;
22697;SDS011;11516;51.612;7.510;2022-10-31T02:18:56;14.63;;;9.77;;
22697;SDS011;11516;51.612;7.510;2022-10-31T02:26:31;16.88;;;10.50;;
22697;SDS011;11516;51.612;7.510;2022-10-31T02:34:46;13.63;;;9.55;;
22697;SDS011;11516;51.612;7.510;2022-10-31T02:37:26;15.48;;;9.73;;
22697;SDS011;11516;51.612;7.510;2022-10-31T02:42:39;14.98;;;8.95;;
22697;SDS011;11516;51.612;7.510;2022-10-31T02:45:15;13.43;;;9.40;;
22697;SDS011;11516;51.612;7.510;2022-10-31T02:47:44;17.75;;;10.13;;
22697;SDS011;11516;51.612;7.510;2022-10-31T02:52:39;14.45;;;9.80;;
22697;SDS011;11516;51.612;7.510;2022-10-31T02:55:12;15.07;;;9.70;;
22697;SDS011;11516;51.612;7.510;2022-10-31T02:58:02;16.02;;;9.98;;
22697;SDS011;11516;51.612;7.510;2022-10-31T03:00:35;16.10;;;9.82;;
22697;SDS011;11516;51.612;7.510;2022-10-31T03:03:10;15.80;;;9.47;;
22697;SDS011;11516;51.612;7.510;2022-10-31T03:06:04;15.30;;;10.30;;
22697;SDS011;11516;51.612;7.510;2022-10-31T03:11:43;15.68;;;9.90;;
22697;SDS011;11516;51.612;7.510;2022-10-31T03:14:41;14.48;;;10.00;;
22697;SDS011;11516;51.612;7.510;2022-10-31T03:17:22;19.88;;;10.85;;
22697;SDS011;11516;51.612;7.510;2022-10-31T03:19:56;15.45;;;10.65;;
22697;SDS011;11516;51.612;7.510;2022-10-31T03:22:26;17.63;;;11.10;;
22697;SDS011;11516;51.612;7.510;2022-10-31T03:24:54;16.13;;;10.68;;
22697;SDS011;11516;51.612;7.510;2022-10-31T03:27:22;17.05;;;10.85;;
22697;SDS011;11516;51.612;7.510;2022-10-31T03:29:51;16.13;;;10.90;;
22697;SDS011;11516;51.612;7.510;2022-10-31T03:32:27;18.07;;;11.60;;
22697;SDS011;11516;51.612;7.510;2022-10-31T03:34:58;17.48;;;11.15;;
22697;SDS011;11516;51.612;7.510;2022-10-31T03:37:26;16.42;;;10.27;;
22697;SDS011;11516;51.612;7.510;2022-10-31T03:39:54;17.58;;;10.60;;
22697;SDS011;11516;51.612;7.510;2022-10-31T03:42:24;16.65;;;10.40;;
22697;SDS011;11516;51.612;7.510;2022-10-31T03:47:31;15.63;;;10.20;;
22697;SDS011;11516;51.612;7.510;2022-10-31T03:49:58;18.30;;;10.43;;
22697;SDS011;11516;51.612;7.510;2022-10-31T03:54:59;20.52;;;11.45;;
22697;SDS011;11516;51.612;7.510;2022-10-31T03:58:16;17.80;;;11.15;;
22697;SDS011;11516;51.612;7.510;2022-10-31T04:00:27;17.92;;;10.68;;
22697;SDS011;11516;51.612;7.510;2022-10-31T04:03:05;19.02;;;11.57;;
22697;SDS011;11516;51.612;7.510;2022-10-31T04:05:34;17.87;;;10.60;;
22697;SDS011;11516;51.612;7.510;2022-10-31T04:08:02;17.90;;;11.23;;
22697;SDS011;11516;51.612;7.510;2022-10-31T04:10:32;16.77;;;11.00;;
22697;SDS011;11516;51.612;7.510;2022-10-31T04:13:07;16.95;;;10.88;;
22697;SDS011;11516;51.612;7.510;2022-10-31T04:15:35;14.17;;;9.87;;
22697;SDS011;11516;51.612;7.510;2022-10-31T04:18:03;17.75;;;10.60;;
22697;SDS011;11516;51.612;7.510;2022-10-31T04:20:31;18.83;;;10.57;;
22697;SDS011;11516;51.612;7.510;2022-10-31T04:23:01;16.77;;;10.48;;
22697;SDS011;11516;51.612;7.510;2022-10-31T04:25:27;16.77;;;10.65;;
22697;SDS011;11516;51.612;7.510;2022-10-31T04:27:54;15.15;;;9.95;;
22697;SDS011;11516;51.612;7.510;2022-10-31T04:30:20;15.07;;;10.73;;
22697;SDS011;11516;51.612;7.510;2022-10-31T04:32:46;19.02;;;11.65;;
22697;SDS011;11516;51.612;7.510;2022-10-31T04:35:11;16.57;;;11.37;;
22697;SDS011;11516;51.612;7.510;2022-10-31T04:37:37;17.20;;;10.70;;
22697;SDS011;11516;51.612;7.510;2022-10-31T04:40:03;16.70;;;11.38;;
22697;SDS011;11516;51.612;7.510;2022-10-31T04:42:29;18.08;;;10.80;;
22697;SDS011;11516;51.612;7.510;2022-10-31T04:44:55;15.07;;;10.83;;
22697;SDS011;11516;51.612;7.510;2022-10-31T04:47:20;18.77;;;11.40;;
22697;SDS011;11516;51.612;7.510;2022-10-31T04:49:46;17.77;;;11.15;;
22697;SDS011;11516;51.612;7.510;2022-10-31T04:52:12;17.77;;;11.50;;
22697;SDS011;11516;51.612;7.510;2022-10-31T04:54:38;16.83;;;10.88;;
22697;SDS011;11516;51.612;7.510;2022-10-31T04:57:03;19.03;;;11.57;;
22697;SDS011;11516;51.612;7.510;2022-10-31T04:59:29;18.00;;;11.55;;
22697;SDS011;11516;51.612;7.510;2022-10-31T05:01:54;17.23;;;10.45;;
22697;SDS011;11516;51.612;7.510;2022-10-31T05:04:20;16.17;;;11.32;;
22697;SDS011;11516;51.612;7.510;2022-10-31T05:07:14;20.67;;;11.70;;
22697;SDS011;11516;51.612;7.510;2022-10-31T05:09:43;13.30;;;10.07;;
22697;SDS011;11516;51.612;7.510;2022-10-31T05:12:20;16.92;;;11.00;;
22697;SDS011;11516;51.612;7.510;2022-10-31T05:14:48;17.92;;;11.10;;
22697;SDS011;11516;51.612;7.510;2022-10-31T05:20:51;17.10;;;10.25;;
22697;SDS011;11516;51.612;7.510;2022-10-31T05:23:19;13.70;;;10.18;;
22697;SDS011;11516;51.612;7.510;2022-10-31T05:26:07;16.73;;;10.70;;
22697;SDS011;11516;51.612;7.510;2022-10-31T05:28:41;17.15;;;10.57;;
22697;SDS011;11516;51.612;7.510;2022-10-31T05:31:12;16.02;;;10.57;;
22697;SDS011;11516;51.612;7.510;2022-10-31T05:33:42;15.93;;;10.80;;
22697;SDS011;11516;51.612;7.510;2022-10-31T05:36:33;15.73;;;10.35;;
22697;SDS011;11516;51.612;7.510;2022-10-31T05:39:04;24.10;;;10.85;;
22697;SDS011;11516;51.612;7.510;2022-10-31T05:41:44;17.05;;;11.57;;
22697;SDS011;11516;51.612;7.510;2022-10-31T05:44:38;17.17;;;10.48;;
22697;SDS011;11516;51.612;7.510;2022-10-31T05:47:15;16.38;;;10.60;;
22697;SDS011;11516;51.612;7.510;2022-10-31T05:49:49;15.50;;;10.25;;
22697;SDS011;11516;51.612;7.510;2022-10-31T05:58:52;17.25;;;11.70;;
22697;SDS011;11516;51.612;7.510;2022-10-31T06:01:18;17.73;;;11.07;;
22697;SDS011;11516;51.612;7.510;2022-10-31T06:04:05;15.70;;;10.10;;
22697;SDS011;11516;51.612;7.510;2022-10-31T06:06:43;17.80;;;10.90;;
22697;SDS011;11516;51.612;7.510;2022-10-31T06:09:14;17.88;;;10.32;;
22697;SDS011;11516;51.612;7.510;2022-10-31T06:12:27;13.55;;;10.35;;
22697;SDS011;11516;51.612;7.510;2022-10-31T06:15:01;17.75;;;10.60;;
22697;SDS011;11516;51.612;7.510;2022-10-31T06:17:30;14.88;;;10.52;;
22697;SDS011;11516;51.612;7.510;2022-10-31T06:20:28;22.23;;;10.98;;
22697;SDS011;11516;51.612;7.510;2022-10-31T06:23:22;15.48;;;10.65;;
22697;SDS011;11516;51.612;7.510;2022-10-31T06:25:59;14.87;;;10.73;;
22697;SDS011;11516;51.612;7.510;2022-10-31T06:32:03;17.38;;;11.40;;
22697;SDS011;11516;51.612;7.510;2022-10-31T06:35:18;15.63;;;11.10;;
22697;SDS011;11516;51.612;7.510;2022-10-31T06:38:04;18.38;;;11.63;;
22697;SDS011;11516;51.612;7.510;2022-10-31T06:40:36;18.20;;;11.43;;
22697;SDS011;11516;51.612;7.510;2022-10-31T06:46:59;19.83;;;11.90;;
22697;SDS011;11516;51.612;7.510;2022-10-31T06:49:33;18.55;;;11.73;;
22697;SDS011;11516;51.612;7.510;2022-10-31T06:55:53;17.35;;;11.52;;
22697;SDS011;11516;51.612;7.510;2022-10-31T06:58:39;17.27;;;11.38;;
22697;SDS011;11516;51.612;7.510;2022-10-31T07:04:22;18.50;;;12.30;;
22697;SDS011;11516;51.612;7.510;2022-10-31T07:07:55;21.60;;;13.63;;
22697;SDS011;11516;51.612;7.510;2022-10-31T07:10:36;18.05;;;12.10;;
22697;SDS011;11516;51.612;7.510;2022-10-31T07:13:15;18.77;;;11.88;;
22697;SDS011;11516;51.612;7.510;2022-10-31T07:15:59;17.70;;;11.85;;
22697;SDS011;11516;51.612;7.510;2022-10-31T07:19:02;17.25;;;11.40;;
22697;SDS011;11516;51.612;7.510;2022-10-31T07:21:59;17.38;;;12.07;;
22697;SDS011;11516;51.612;7.510;2022-10-31T07:25:05;22.95;;;12.85;;
22697;SDS011;11516;51.612;7.510;2022-10-31T07:27:48;20.92;;;12.23;;
22697;SDS011;11516;51.612;7.510;2022-10-31T07:36:57;20.05;;;12.00;;
22697;SDS011;11516;51.612;7.510;2022-10-31T07:39:42;19.10;;;11.88;;
22697;SDS011;11516;51.612;7.510;2022-10-31T07:42:36;17.17;;;11.85;;
22697;SDS011;11516;51.612;7.510;2022-10-31T07:45:13;23.77;;;13.05;;
22697;SDS011;11516;51.612;7.510;2022-10-31T07:48:12;19.00;;;12.38;;
22697;SDS011;11516;51.612;7.510;2022-10-31T07:51:35;20.95;;;13.18;;
22697;SDS011;11516;51.612;7.510;2022-10-31T07:59:32;18.45;;;12.60;;
22697;SDS011;11516;51.612;7.510;2022-10-31T08:02:03;17.45;;;12.98;;
22697;SDS011;11516;51.612;7.510;2022-10-31T08:04:28;17.92;;;12.57;;
22697;SDS011;11516;51.612;7.510;2022-10-31T08:06:54;21.23;;;13.32;;
22697;SDS011;11516;51.612;7.510;2022-10-31T08:15:40;17.73;;;13.52;;
22697;SDS011;11516;51.612;7.510;2022-10-31T08:18:10;22.55;;;14.15;;
22697;SDS011;11516;51.612;7.510;2022-10-31T08:20:37;18.13;;;14.73;;
22697;SDS011;11516;51.612;7.510;2022-10-31T08:23:04;20.60;;;14.65;;
22697;SDS011;11516;51.612;7.510;2022-10-31T08:25:31;23.33;;;14.02;;
22697;SDS011;11516;51.612;7.510;2022-10-31T08:27:59;24.37;;;14.90;;
22697;SDS011;11516;51.612;7.510;2022-10-31T08:30:26;20.13;;;15.07;;
22697;SDS011;11516;51.612;7.510;2022-10-31T08:35:26;23.13;;;14.50;;
22697;SDS011;11516;51.612;7.510;2022-10-31T08:37:55;22.55;;;14.25;;
22697;SDS011;11516;51.612;7.510;2022-10-31T08:40:22;21.65;;;14.05;;
22697;SDS011;11516;51.612;7.510;2022-10-31T08:42:55;25.88;;;13.85;;
22697;SDS011;11516;51.612;7.510;2022-10-31T08:45:52;24.88;;;15.15;;
22697;SDS011;11516;51.612;7.510;2022-10-31T08:48:20;21.52;;;14.35;;
22697;SDS011;11516;51.612;7.510;2022-10-31T08:50:51;22.63;;;14.32;;
22697;SDS011;11516;51.612;7.510;2022-10-31T08:53:20;23.85;;;14.23;;
22697;SDS011;11516;51.612;7.510;2022-10-31T08:55:47;21.73;;;13.77;;
22697;SDS011;11516;51.612;7.510;2022-10-31T08:58:18;22.95;;;13.90;;
22697;SDS011;11516;51.612;7.510;2022-10-31T09:00:45;25.10;;;14.82;;
22697;SDS011;11516;51.612;7.510;2022-10-31T09:03:13;23.60;;;14.27;;
22697;SDS011;11516;51.612;7.510;2022-10-31T09:05:42;25.25;;;14.98;;
22697;SDS011;11516;51.612;7.510;2022-10-31T09:08:11;24.67;;;15.05;;
22697;SDS011;11516;51.612;7.510;2022-10-31T09:10:39;24.90;;;14.90;;
22697;SDS011;11516;51.612;7.510;2022-10-31T09:13:09;27.17;;;14.98;;
22697;SDS011;11516;51.612;7.510;2022-10-31T09:15:43;30.50;;;17.58;;
22697;SDS011;11516;51.612;7.510;2022-10-31T09:18:27;26.05;;;15.02;;
22697;SDS011;11516;51.612;7.510;2022-10-31T09:21:00;26.27;;;15.15;;
22697;SDS011;11516;51.612;7.510;2022-10-31T09:23:29;30.02;;;16.10;;
22697;SDS011;11516;51.612;7.510;2022-10-31T09:26:06;29.25;;;17.15;;
22697;SDS011;11516;51.612;7.510;2022-10-31T09:28:34;27.33;;;15.82;;
22697;SDS011;11516;51.612;7.510;2022-10-31T09:31:02;26.57;;;15.53;;
22697;SDS011;11516;51.612;7.510;2022-10-31T09:33:33;28.88;;;15.93;;
22697;SDS011;11516;51.612;7.510;2022-10-31T09:35:59;27.17;;;16.00;;
22697;SDS011;11516;51.612;7.510;2022-10-31T09:38:24;31.40;;;16.80;;
22697;SDS011;11516;51.612;7.510;2022-10-31T09:47:00;26.38;;;17.27;;
22697;SDS011;11516;51.612;7.510;2022-10-31T10:00:31;27.92;;;16.23;;
22697;SDS011;11516;51.612;7.510;2022-10-31T10:09:06;27.92;;;16.63;;
22697;SDS011;11516;51.612;7.510;2022-10-31T10:22:27;30.63;;;16.65;;
22697;SDS011;11516;51.612;7.510;2022-10-31T10:38:50;33.15;;;19.30;;
22697;SDS011;11516;51.612;7.510;2022-10-31T10:41:41;33.83;;;19.08;;
22697;SDS011;11516;51.612;7.510;2022-10-31T10:44:10;32.03;;;19.20;;
22697;SDS011;11516;51.612;7.510;2022-10-31T10:46:49;37.20;;;21.33;;
22697;SDS011;11516;51.612;7.510;2022-10-31T10:49:45;31.45;;;19.25;;
22697;SDS011;11516;51.612;7.510;2022-10-31T10:55:09;33.50;;;19.92;;
22697;SDS011;11516;51.612;7.510;2022-10-31T10:58:00;37.35;;;19.33;;
22697;SDS011;11516;51.612;7.510;2022-10-31T11:03:02;40.25;;;22.48;;
22697;SDS011;11516;51.612;7.510;2022-10-31T11:05:46;33.05;;;19.40;;
22697;SDS011;11516;51.612;7.510;2022-10-31T11:08:25;33.40;;;19.50;;
22697;SDS011;11516;51.612;7.510;2022-10-31T11:11:19;30.80;;;18.88;;
22697;SDS011;11516;51.612;7.510;2022-10-31T11:13:57;30.35;;;18.90;;
22697;SDS011;11516;51.612;7.510;2022-10-31T11:16:51;32.47;;;18.42;;
22697;SDS011;11516;51.612;7.510;2022-10-31T11:19:24;33.42;;;18.92;;
22697;SDS011;11516;51.612;7.510;2022-10-31T11:21:52;28.50;;;18.08;;
22697;SDS011;11516;51.612;7.510;2022-10-31T11:24:19;35.72;;;19.23;;
22697;SDS011;11516;51.612;7.510;2022-10-31T11:26:50;32.63;;;18.15;;
22697;SDS011;11516;51.612;7.510;2022-10-31T11:29:20;30.53;;;18.90;;
22697;SDS011;11516;51.612;7.510;2022-10-31T11:31:53;28.60;;;18.67;;
22697;SDS011;11516;51.612;7.510;2022-10-31T11:34:29;30.88;;;18.60;;
22697;SDS011;11516;51.612;7.510;2022-10-31T11:39:45;27.88;;;17.38;;
22697;SDS011;11516;51.612;7.510;2022-10-31T11:42:19;28.70;;;17.25;;
22697;SDS011;11516;51.612;7.510;2022-10-31T11:44:52;29.05;;;17.35;;
22697;SDS011;11516;51.612;7.510;2022-10-31T11:47:23;27.77;;;17.13;;
22697;SDS011;11516;51.612;7.510;2022-10-31T11:49:55;30.77;;;16.73;;
22697;SDS011;11516;51.612;7.510;2022-10-31T11:52:27;34.72;;;18.25;;
22697;SDS011;11516;51.612;7.510;2022-10-31T11:55:17;33.17;;;17.42;;
22697;SDS011;11516;51.612;7.510;2022-10-31T11:58:02;23.08;;;15.18;;
22697;SDS011;11516;51.612;7.510;2022-10-31T12:00:29;25.60;;;16.55;;
22697;SDS011;11516;51.612;7.510;2022-10-31T12:03:10;28.20;;;17.03;;
22697;SDS011;11516;51.612;7.510;2022-10-31T12:05:40;26.40;;;17.23;;
22697;SDS011;11516;51.612;7.510;2022-10-31T12:08:11;25.92;;;16.05;;
22697;SDS011;11516;51.612;7.510;2022-10-31T12:10:46;29.05;;;17.13;;
22697;SDS011;11516;51.612;7.510;2022-10-31T12:13:31;33.05;;;17.15;;
22697;SDS011;11516;51.612;7.510;2022-10-31T12:16:07;27.83;;;17.23;;
22697;SDS011;11516;51.612;7.510;2022-10-31T12:19:09;31.33;;;18.52;;
22697;SDS011;11516;51.612;7.510;2022-10-31T12:22:12;31.70;;;18.70;;
22697;SDS011;11516;51.612;7.510;2022-10-31T12:30:19;26.70;;;17.97;;
22697;SDS011;11516;51.612;7.510;2022-10-31T12:42:47;29.17;;;17.10;;
22697;SDS011;11516;51.612;7.510;2022-10-31T12:45:02;29.70;;;17.80;;
22697;SDS011;11516;51.612;7.510;2022-10-31T12:53:30;28.60;;;16.67;;
22697;SDS011;11516;51.612;7.510;2022-10-31T12:56:04;28.23;;;16.83;;
22697;SDS011;11516;51.612;7.510;2022-10-31T13:01:51;37.22;;;18.52;;
22697;SDS011;11516;51.612;7.510;2022-10-31T13:04:55;28.67;;;16.07;;
22697;SDS011;11516;51.612;7.510;2022-10-31T13:10:03;27.77;;;17.00;;
22697;SDS011;11516;51.612;7.510;2022-10-31T13:12:39;24.40;;;16.17;;
22697;SDS011;11516;51.612;7.510;2022-10-31T13:15:22;26.30;;;15.30;;
22697;SDS011;11516;51.612;7.510;2022-10-31T13:17:53;26.33;;;15.82;;
22697;SDS011;11516;51.612;7.510;2022-10-31T13:20:27;30.23;;;16.15;;
22697;SDS011;11516;51.612;7.510;2022-10-31T13:26:12;27.10;;;15.23;;
22697;SDS011;11516;51.612;7.510;2022-10-31T13:29:01;29.55;;;15.40;;
22697;SDS011;11516;51.612;7.510;2022-10-31T13:31:59;30.80;;;17.48;;
22697;SDS011;11516;51.612;7.510;2022-10-31T13:34:51;31.92;;;16.48;;
22697;SDS011;11516;51.612;7.510;2022-10-31T13:40:18;30.83;;;16.42;;
22697;SDS011;11516;51.612;7.510;2022-10-31T13:43:20;32.05;;;16.25;;
22697;SDS011;11516;51.612;7.510;2022-10-31T13:45:52;30.65;;;15.57;;
22697;SDS011;11516;51.612;7.510;2022-10-31T13:48:36;27.38;;;15.75;;
22697;SDS011;11516;51.612;7.510;2022-10-31T13:51:05;27.73;;;16.00;;
22697;SDS011;11516;51.612;7.510;2022-10-31T13:56:21;29.00;;;16.17;;
22697;SDS011;11516;51.612;7.510;2022-10-31T13:59:00;26.75;;;16.08;;
22697;SDS011;11516;51.612;7.510;2022-10-31T14:01:32;27.70;;;16.65;;
22697;SDS011;11516;51.612;7.510;2022-10-31T14:04:03;29.43;;;16.67;;
22697;SDS011;11516;51.612;7.510;2022-10-31T14:06:36;26.33;;;16.58;;
22697;SDS011;11516;51.612;7.510;2022-10-31T14:09:34;30.52;;;17.25;;
22697;SDS011;11516;51.612;7.510;2022-10-31T14:12:24;27.30;;;17.38;;
22697;SDS011;11516;51.612;7.510;2022-10-31T14:14:55;29.60;;;17.40;;
22697;SDS011;11516;51.612;7.510;2022-10-31T14:17:46;30.07;;;17.70;;
22697;SDS011;11516;51.612;7.510;2022-10-31T14:22:40;27.33;;;17.52;;
22697;SDS011;11516;51.612;7.510;2022-10-31T14:27:52;34.17;;;18.25;;
22697;SDS011;11516;51.612;7.510;2022-10-31T14:30:25;31.70;;;17.90;;
22697;SDS011;11516;51.612;7.510;2022-10-31T14:32:58;29.88;;;18.00;;
22697;SDS011;11516;51.612;7.510;2022-10-31T14:35:29;33.00;;;18.48;;
22697;SDS011;11516;51.612;7.510;2022-10-31T14:41:33;34.93;;;20.13;;
22697;SDS011;11516;51.612;7.510;2022-10-31T14:44:21;34.03;;;18.98;;
22697;SDS011;11516;51.612;7.510;2022-10-31T14:46:59;32.00;;;19.27;;
22697;SDS011;11516;51.612;7.510;2022-10-31T14:52:56;37.65;;;23.63;;
22697;SDS011;11516;51.612;7.510;2022-10-31T14:55:25;34.75;;;20.95;;
22697;SDS011;11516;51.612;7.510;2022-10-31T14:57:56;31.55;;;17.95;;
22697;SDS011;11516;51.612;7.510;2022-10-31T15:00:28;30.65;;;18.92;;
22697;SDS011;11516;51.612;7.510;2022-10-31T15:03:18;32.95;;;19.15;;
22697;SDS011;11516;51.612;7.510;2022-10-31T15:06:05;31.73;;;18.47;;
22697;SDS011;11516;51.612;7.510;2022-10-31T15:08:46;29.95;;;18.20;;
22697;SDS011;11516;51.612;7.510;2022-10-31T15:11:20;31.98;;;18.27;;
22697;SDS011;11516;51.612;7.510;2022-10-31T15:13:51;31.30;;;18.88;;
22697;SDS011;11516;51.612;7.510;2022-10-31T15:16:25;26.55;;;18.70;;
22697;SDS011;11516;51.612;7.510;2022-10-31T15:19:02;31.15;;;18.88;;
22697;SDS011;11516;51.612;7.510;2022-10-31T15:21:30;30.75;;;18.80;;
22697;SDS011;11516;51.612;7.510;2022-10-31T15:23:59;31.80;;;17.70;;
22697;SDS011;11516;51.612;7.510;2022-10-31T15:26:28;30.13;;;18.58;;
22697;SDS011;11516;51.612;7.510;2022-10-31T15:29:02;32.38;;;18.77;;
22697;SDS011;11516;51.612;7.510;2022-10-31T15:31:52;28.02;;;17.60;;
22697;SDS011;11516;51.612;7.510;2022-10-31T15:34:37;30.07;;;18.43;;
22697;SDS011;11516;51.612;7.510;2022-10-31T15:37:16;30.73;;;18.93;;
22697;SDS011;11516;51.612;7.510;2022-10-31T15:40:05;29.30;;;19.20;;
22697;SDS011;11516;51.612;7.510;2022-10-31T15:42:33;32.03;;;19.52;;
22697;SDS011;11516;51.612;7.510;2022-10-31T15:48:25;27.90;;;19.08;;
22697;SDS011;11516;51.612;7.510;2022-10-31T15:51:40;31.42;;;18.38;;
22697;SDS011;11516;51.612;7.510;2022-10-31T15:54:12;29.90;;;19.80;;
22697;SDS011;11516;51.612;7.510;2022-10-31T15:56:39;30.50;;;19.73;;
22697;SDS011;11516;51.612;7.510;2022-10-31T15:59:11;29.92;;;20.10;;
22697;SDS011;11516;51.612;7.510;2022-10-31T16:01:55;34.42;;;20.55;;
22697;SDS011;11516;51.612;7.510;2022-10-31T16:04:36;30.07;;;19.20;;
22697;SDS011;11516;51.612;7.510;2022-10-31T16:07:13;34.83;;;19.63;;
22697;SDS011;11516;51.612;7.510;2022-10-31T16:09:56;33.45;;;19.30;;
22697;SDS011;11516;51.612;7.510;2022-10-31T16:12:36;33.15;;;20.05;;
22697;SDS011;11516;51.612;7.510;2022-10-31T16:15:22;36.30;;;21.48;;
22697;SDS011;11516;51.612;7.510;2022-10-31T16:18:02;38.33;;;23.80;;
22697;SDS011;11516;51.612;7.510;2022-10-31T16:20:31;31.73;;;21.45;;
22697;SDS011;11516;51.612;7.510;2022-10-31T16:23:04;32.23;;;20.77;;
22697;SDS011;11516;51.612;7.510;2022-10-31T16:25:36;31.42;;;20.02;;
22697;SDS011;11516;51.612;7.510;2022-10-31T16:28:13;32.27;;;21.60;;
22697;SDS011;11516;51.612;7.510;2022-10-31T16:30:45;32.83;;;20.97;;
22697;SDS011;11516;51.612;7.510;2022-10-31T16:33:32;33.40;;;20.90;;
22697;SDS011;11516;51.612;7.510;2022-10-31T16:36:13;31.80;;;21.38;;
22697;SDS011;11516;51.612;7.510;2022-10-31T16:38:55;30.98;;;20.88;;
22697;SDS011;11516;51.612;7.510;2022-10-31T16:41:20;31.52;;;21.00;;
22697;SDS011;11516;51.612;7.510;2022-10-31T16:43:47;31.73;;;21.17;;
22697;SDS011;11516;51.612;7.510;2022-10-31T16:46:24;33.25;;;21.25;;
22697;SDS011;11516;51.612;7.510;2022-10-31T16:49:08;33.92;;;21.27;;
22697;SDS011;11516;51.612;7.510;2022-10-31T16:51:36;30.67;;;21.05;;
22697;SDS011;11516;51.612;7.510;2022-10-31T16:54:05;33.22;;;21.98;;
22697;SDS011;11516;51.612;7.510;2022-10-31T16:56:36;44.00;;;30.15;;
22697;SDS011;11516;51.612;7.510;2022-10-31T16:59:08;48.38;;;33.95;;
22697;SDS011;11516;51.612;7.510;2022-10-31T17:01:38;39.83;;;26.37;;
22697;SDS011;11516;51.612;7.510;2022-10-31T17:04:05;35.35;;;23.30;;
22697;SDS011;11516;51.612;7.510;2022-10-31T17:06:32;32.03;;;22.67;;
22697;SDS011;11516;51.612;7.510;2022-10-31T17:08:58;33.63;;;22.73;;
22697;SDS011;11516;51.612;7.510;2022-10-31T17:11:24;34.13;;;22.70;;
22697;SDS011;11516;51.612;7.510;2022-10-31T17:13:51;32.95;;;22.10;;
22697;SDS011;11516;51.612;7.510;2022-10-31T17:16:18;33.67;;;22.73;;
22697;SDS011;11516;51.612;7.510;2022-10-31T17:18:44;33.10;;;21.42;;
22697;SDS011;11516;51.612;7.510;2022-10-31T17:21:14;32.92;;;22.75;;
22697;SDS011;11516;51.612;7.510;2022-10-31T17:23:48;33.92;;;22.63;;
22697;SDS011;11516;51.612;7.510;2022-10-31T17:26:17;43.85;;;31.55;;
22697;SDS011;11516;51.612;7.510;2022-10-31T17:28:43;35.63;;;25.85;;
22697;SDS011;11516;51.612;7.510;2022-10-31T17:31:11;33.53;;;22.73;;
22697;SDS011;11516;51.612;7.510;2022-10-31T17:33:47;31.30;;;21.77;;
22697;SDS011;11516;51.612;7.510;2022-10-31T17:36:12;33.03;;;22.07;;
22697;SDS011;11516;51.612;7.510;2022-10-31T17:38:38;32.10;;;21.70;;
22697;SDS011;11516;51.612;7.510;2022-10-31T17:41:04;34.77;;;21.67;;
22697;SDS011;11516;51.612;7.510;2022-10-31T17:43:30;32.03;;;21.83;;
22697;SDS011;11516;51.612;7.510;2022-10-31T17:45:57;33.27;;;21.17;;
22697;SDS011;11516;51.612;7.510;2022-10-31T17:48:24;30.30;;;20.35;;
22697;SDS011;11516;51.612;7.510;2022-10-31T17:50:50;29.27;;;20.73;;
22697;SDS011;11516;51.612;7.510;2022-10-31T17:53:16;28.67;;;19.83;;
22697;SDS011;11516;51.612;7.510;2022-10-31T17:55:41;28.57;;;20.00;;
22697;SDS011;11516;51.612;7.510;2022-10-31T17:58:07;31.17;;;20.30;;
22697;SDS011;11516;51.612;7.510;2022-10-31T18:00:38;26.67;;;18.63;;
22697;SDS011;11516;51.612;7.510;2022-10-31T18:03:07;30.53;;;17.97;;
22697;SDS011;11516;51.612;7.510;2022-10-31T18:05:33;26.60;;;18.03;;